Time;durP1;ratioP1;P1;durP2;ratioP2;P2;SDS_P1;SDS_P2;PMS_P1;PMS_P2;Temp;Humidity;BMP_temperature;BMP_pressure;BME280_temperature;BME280_humidity;BME280_pressure;Samples;Min_cycle;Max_cycle;Signal;HPM_P1;HPM_P2
2023/01/22 00:00:56;;;;;;;3.33;2.50;;;2.60;99.90;;;;;;5056527;28;20202;-68
2023/01/22 00:03:22;;;;;;;5.30;3.63;;;2.60;99.90;;;;;;5056262;28;20264;-63
2023/01/22 00:05:49;;;;;;;3.47;2.90;;;2.60;99.90;;;;;;5056171;28;20239;-63
2023/01/22 00:08:14;;;;;;;4.50;3.17;;;2.60;99.90;;;;;;5055191;28;20220;-61
2023/01/22 00:10:46;;;;;;;4.97;2.90;;;2.60;99.90;;;;;;5020709;28;20202;-62
2023/01/22 00:13:12;;;;;;;4.90;4.33;;;2.60;99.90;;;;;;5056335;28;20803;-61
2023/01/22 00:15:38;;;;;;;3.37;3.07;;;2.60;99.90;;;;;;5056474;28;20200;-61
2023/01/22 00:18:03;;;;;;;2.93;2.63;;;2.60;99.90;;;;;;5056446;28;20208;-63
2023/01/22 00:20:28;;;;;;;3.20;2.73;;;2.60;99.90;;;;;;5056181;28;20205;-67
2023/01/22 00:22:54;;;;;;;2.97;2.27;;;2.60;99.90;;;;;;5055055;28;20233;-65
2023/01/22 00:25:19;;;;;;;5.90;3.73;;;2.80;99.90;;;;;;5055435;28;20227;-63
2023/01/22 00:27:45;;;;;;;3.07;2.87;;;3.00;99.90;;;;;;5056415;28;20204;-65
2023/01/22 00:30:11;;;;;;;5.07;3.17;;;3.10;99.90;;;;;;5056288;28;20686;-65
2023/01/22 00:32:36;;;;;;;5.00;3.43;;;3.20;99.90;;;;;;5056839;28;20207;-64
2023/01/22 00:35:02;;;;;;;6.80;3.53;;;3.20;99.90;;;;;;5056005;28;20201;-65
2023/01/22 00:37:27;;;;;;;4.20;2.73;;;3.30;99.90;;;;;;5054243;28;20700;-64
2023/01/22 00:39:53;;;;;;;7.13;3.20;;;3.30;99.90;;;;;;5056682;28;20198;-63
2023/01/22 00:42:18;;;;;;;5.20;3.30;;;3.40;99.90;;;;;;5051689;28;20205;-63
2023/01/22 00:44:44;;;;;;;2.63;2.40;;;3.40;99.90;;;;;;5038526;28;20191;-64
2023/01/22 00:47:09;;;;;;;6.37;3.53;;;3.40;99.90;;;;;;5056412;28;20228;-65
2023/01/22 00:49:34;;;;;;;3.17;2.87;;;3.40;99.90;;;;;;5054308;28;20279;-63
2023/01/22 00:52:00;;;;;;;5.03;2.73;;;3.40;99.90;;;;;;5056229;28;20211;-63
2023/01/22 00:54:26;;;;;;;4.90;3.37;;;3.40;99.90;;;;;;5056080;28;20200;-62
2023/01/22 00:56:52;;;;;;;6.33;3.00;;;3.40;99.90;;;;;;5056421;28;20238;-63
2023/01/22 00:59:17;;;;;;;6.37;3.10;;;3.40;99.90;;;;;;5055170;28;20245;-64
2023/01/22 01:01:43;;;;;;;4.70;3.07;;;3.30;99.90;;;;;;5055993;28;20205;-64
2023/01/22 01:04:08;;;;;;;4.30;2.80;;;3.30;99.90;;;;;;5054019;28;20205;-63
2023/01/22 01:06:34;;;;;;;3.60;3.27;;;3.30;99.90;;;;;;5056215;28;20197;-63
2023/01/22 01:09:00;;;;;;;3.57;2.73;;;3.30;99.90;;;;;;5055939;28;20202;-64
2023/01/22 01:11:26;;;;;;;4.30;3.03;;;3.20;99.90;;;;;;4994752;28;20768;-69
2023/01/22 01:13:52;;;;;;;3.33;2.47;;;3.20;99.90;;;;;;5054179;28;20206;-63
2023/01/22 01:16:28;;;;;;;5.43;3.23;;;3.20;99.90;;;;;;5053941;28;20559;-65
2023/01/22 01:18:57;;;;;;;3.97;2.80;;;3.20;99.90;;;;;;5055576;28;20362;-62
2023/01/22 01:21:22;;;;;;;3.20;2.60;;;3.20;99.90;;;;;;5055535;28;20210;-64
2023/01/22 01:23:48;;;;;;;3.63;3.07;;;3.10;99.90;;;;;;5055444;28;20563;-63
2023/01/22 01:26:15;;;;;;;3.03;2.67;;;3.00;99.90;;;;;;5054011;28;20194;-64
2023/01/22 01:28:41;;;;;;;3.10;2.73;;;2.90;99.90;;;;;;5055685;28;20205;-62
2023/01/22 01:31:09;;;;;;;4.20;2.53;;;2.70;99.90;;;;;;5055898;28;20204;-62
2023/01/22 01:33:35;;;;;;;4.80;4.03;;;2.70;99.90;;;;;;5055360;28;20687;-61
2023/01/22 01:36:22;;;;;;;5.07;3.47;;;2.60;99.90;;;;;;5055363;28;20206;-64
2023/01/22 01:38:47;;;;;;;3.83;3.50;;;2.60;99.90;;;;;;5050875;28;20214;-62
2023/01/22 01:41:19;;;;;;;3.97;3.53;;;2.60;99.90;;;;;;5055544;28;20282;-65
2023/01/22 01:43:45;;;;;;;3.50;2.63;;;2.50;99.90;;;;;;5047130;28;20695;-62
2023/01/22 01:46:21;;;;;;;4.10;3.37;;;2.50;99.90;;;;;;5055317;28;20232;-61
2023/01/22 01:48:51;;;;;;;3.10;2.90;;;2.50;99.90;;;;;;5053239;28;20218;-64
2023/01/22 01:51:35;;;;;;;3.43;2.60;;;2.50;99.90;;;;;;5055346;28;20201;-63
2023/01/22 01:54:03;;;;;;;2.87;2.67;;;2.50;99.90;;;;;;5035271;28;20277;-61
2023/01/22 01:56:44;;;;;;;3.80;2.90;;;2.50;99.90;;;;;;5055546;28;20287;-63
2023/01/22 01:59:12;;;;;;;3.90;2.67;;;2.50;99.90;;;;;;5055324;28;20217;-61
2023/01/22 02:01:38;;;;;;;4.07;3.23;;;2.50;99.90;;;;;;5053447;28;20213;-63
2023/01/22 02:04:04;;;;;;;3.20;2.80;;;2.50;99.90;;;;;;5054715;28;20733;-63
2023/01/22 02:06:30;;;;;;;3.43;2.53;;;2.40;99.90;;;;;;5055229;28;20336;-62
2023/01/22 02:08:56;;;;;;;3.10;2.30;;;2.40;99.90;;;;;;5053001;28;20285;-64
2023/01/22 02:11:22;;;;;;;2.80;2.60;;;2.40;99.90;;;;;;5055207;28;20235;-63
2023/01/22 02:13:53;;;;;;;3.00;2.80;;;2.40;99.90;;;;;;5052990;28;20215;-62
2023/01/22 02:16:18;;;;;;;4.07;2.97;;;2.40;99.90;;;;;;5055011;28;20291;-62
2023/01/22 02:18:44;;;;;;;4.13;3.80;;;2.40;99.90;;;;;;5054993;28;21245;-62
2023/01/22 02:21:34;;;;;;;3.27;2.97;;;2.40;99.90;;;;;;5054811;28;20209;-63
2023/01/22 02:24:00;;;;;;;2.60;2.40;;;2.50;99.90;;;;;;5054807;28;20259;-64
2023/01/22 02:26:26;;;;;;;2.47;2.27;;;2.50;99.90;;;;;;5054828;28;20202;-63
2023/01/22 02:28:52;;;;;;;3.33;2.90;;;2.40;99.90;;;;;;5052775;28;20769;-62
2023/01/22 02:31:17;;;;;;;2.87;2.67;;;2.40;99.90;;;;;;5054490;28;20197;-62
2023/01/22 02:33:43;;;;;;;2.63;2.43;;;2.40;99.90;;;;;;5055135;28;20222;-61
2023/01/22 02:36:09;;;;;;;4.03;3.50;;;2.40;99.90;;;;;;5054928;28;20738;-62
2023/01/22 02:38:34;;;;;;;4.13;3.23;;;2.50;99.90;;;;;;5037081;28;20225;-63
2023/01/22 02:41:00;;;;;;;3.20;2.90;;;2.50;99.90;;;;;;5054846;28;20194;-62
2023/01/22 02:43:25;;;;;;;2.80;2.70;;;2.40;99.90;;;;;;5053257;28;20278;-63
2023/01/22 02:45:52;;;;;;;2.37;2.13;;;2.40;99.90;;;;;;5055703;28;20213;-62
2023/01/22 02:48:18;;;;;;;3.20;2.53;;;2.40;99.90;;;;;;5058108;28;20304;-60
2023/01/22 02:50:44;;;;;;;2.97;2.60;;;2.40;99.90;;;;;;5058783;28;20336;-64
2023/01/22 02:53:10;;;;;;;3.43;2.33;;;2.40;99.90;;;;;;5057632;28;20198;-62
2023/01/22 02:55:37;;;;;;;2.67;2.47;;;2.30;99.90;;;;;;5056133;28;20209;-61
2023/01/22 02:58:03;;;;;;;2.67;2.47;;;2.30;99.90;;;;;;5058180;28;20304;-62
2023/01/22 03:00:29;;;;;;;3.10;2.47;;;2.30;99.90;;;;;;5058470;28;20289;-62
2023/01/22 03:02:54;;;;;;;3.73;3.03;;;2.30;99.90;;;;;;5058587;28;20228;-62
2023/01/22 03:05:20;;;;;;;2.77;2.57;;;2.30;99.90;;;;;;5058173;28;20232;-62
2023/01/22 03:07:45;;;;;;;2.70;2.40;;;2.30;99.90;;;;;;5058332;28;20271;-60
2023/01/22 03:10:16;;;;;;;4.23;3.67;;;2.30;99.90;;;;;;5056208;28;20214;-61
2023/01/22 03:23:39;;;;;;;3.13;2.83;;;2.50;99.90;;;;;;5049440;28;20241;-62
2023/01/22 03:26:04;;;;;;;2.60;2.40;;;2.50;99.90;;;;;;5055849;28;20660;-62
2023/01/22 03:28:30;;;;;;;2.80;2.60;;;2.50;99.90;;;;;;5057529;28;20301;-60
2023/01/22 03:30:56;;;;;;;2.73;2.53;;;2.50;99.90;;;;;;5058526;28;20224;-61
2023/01/22 03:33:21;;;;;;;2.67;2.47;;;2.50;99.90;;;;;;5052590;28;20198;-63
2023/01/22 03:35:47;;;;;;;4.03;2.63;;;2.50;99.90;;;;;;5056710;28;20208;-61
2023/01/22 03:38:12;;;;;;;2.87;2.53;;;2.60;99.90;;;;;;5056282;28;20366;-63
2023/01/22 03:40:38;;;;;;;2.50;2.30;;;2.50;99.90;;;;;;5057730;28;20202;-63
2023/01/22 03:43:03;;;;;;;3.30;2.97;;;2.60;99.90;;;;;;5057201;28;20247;-62
2023/01/22 03:45:32;;;;;;;2.50;2.40;;;2.60;99.90;;;;;;5057362;28;20194;-63
2023/01/22 03:47:57;;;;;;;2.43;2.30;;;2.60;99.90;;;;;;5057066;28;20733;-62
2023/01/22 03:50:22;;;;;;;2.50;2.30;;;2.60;99.90;;;;;;5055024;28;20235;-62
2023/01/22 03:52:48;;;;;;;2.87;2.57;;;2.60;99.90;;;;;;5057449;28;20701;-61
2023/01/22 03:55:13;;;;;;;2.50;2.30;;;2.60;99.90;;;;;;5056638;28;20202;-62
2023/01/22 03:57:39;;;;;;;2.20;2.10;;;2.60;99.90;;;;;;5056393;28;20217;-62
2023/01/22 04:00:06;;;;;;;2.50;2.30;;;2.60;99.90;;;;;;5056554;28;20244;-62
2023/01/22 04:02:32;;;;;;;2.93;2.63;;;2.60;99.90;;;;;;5055135;28;20209;-63
2023/01/22 04:04:58;;;;;;;2.90;2.70;;;2.60;99.90;;;;;;5056751;28;20564;-62
2023/01/22 04:07:23;;;;;;;2.40;2.20;;;2.60;99.90;;;;;;5056898;28;20198;-62
2023/01/22 04:09:49;;;;;;;2.70;2.50;;;2.60;99.90;;;;;;5025028;28;20249;-62
2023/01/22 04:12:14;;;;;;;2.93;2.63;;;2.60;99.90;;;;;;5057374;28;20283;-60
2023/01/22 04:14:40;;;;;;;3.80;2.83;;;2.60;99.90;;;;;;5050223;28;20253;-60
2023/01/22 04:17:05;;;;;;;2.57;2.37;;;2.60;99.90;;;;;;5057223;28;20215;-62
2023/01/22 04:19:31;;;;;;;2.30;2.10;;;2.60;99.90;;;;;;5056593;28;20213;-61
2023/01/22 04:21:56;;;;;;;3.03;2.80;;;2.60;99.90;;;;;;5053007;28;20615;-62
2023/01/22 04:24:22;;;;;;;3.10;2.57;;;2.60;99.90;;;;;;5052948;28;20206;-62
2023/01/22 04:26:47;;;;;;;4.13;2.93;;;2.60;99.90;;;;;;5056938;28;20306;-62
2023/01/22 04:29:13;;;;;;;3.40;3.20;;;2.60;99.90;;;;;;5056647;28;20215;-62
2023/01/22 04:31:38;;;;;;;3.17;2.93;;;2.60;99.90;;;;;;5056817;28;21615;-62
2023/01/22 04:34:04;;;;;;;3.70;3.40;;;2.60;99.90;;;;;;5056355;28;20202;-62
2023/01/22 04:36:29;;;;;;;3.27;3.07;;;2.60;99.90;;;;;;5055658;28;20217;-62
2023/01/22 04:38:55;;;;;;;3.87;3.53;;;2.60;99.90;;;;;;5054716;28;20285;-61
2023/01/22 04:41:20;;;;;;;3.40;3.20;;;2.60;99.90;;;;;;5056044;28;20225;-63
2023/01/22 04:43:46;;;;;;;2.73;2.53;;;2.60;99.90;;;;;;5056391;28;20198;-62
2023/01/22 04:46:12;;;;;;;3.60;3.30;;;2.70;99.90;;;;;;5056070;28;20197;-62
2023/01/22 04:48:37;;;;;;;4.07;3.17;;;2.70;99.90;;;;;;5056340;28;20274;-61
2023/01/22 04:51:05;;;;;;;3.60;3.17;;;2.70;99.90;;;;;;5055976;28;20206;-64
2023/01/22 04:53:31;;;;;;;3.63;3.33;;;2.70;99.90;;;;;;5055509;28;20750;-63
2023/01/22 04:55:56;;;;;;;3.40;3.10;;;2.70;99.90;;;;;;5056203;28;20205;-63
2023/01/22 04:58:22;;;;;;;3.40;3.10;;;2.70;99.90;;;;;;5056066;28;20225;-62
2023/01/22 05:00:47;;;;;;;4.27;3.87;;;2.70;99.90;;;;;;5055850;28;20200;-63
2023/01/22 05:03:14;;;;;;;3.50;3.10;;;2.70;99.90;;;;;;5055906;28;20675;-63
2023/01/22 05:05:39;;;;;;;3.73;3.43;;;2.70;99.90;;;;;;5053585;28;20194;-64
2023/01/22 05:08:05;;;;;;;4.53;3.77;;;2.70;99.90;;;;;;5055775;28;20200;-62
2023/01/22 05:10:30;;;;;;;3.70;3.40;;;2.70;99.90;;;;;;5013299;28;20245;-67
2023/01/22 05:12:56;;;;;;;3.43;3.13;;;2.80;99.90;;;;;;5056642;28;20238;-62
2023/01/22 05:15:22;;;;;;;3.90;3.50;;;2.80;99.90;;;;;;5053745;28;20977;-61
2023/01/22 05:17:47;;;;;;;3.73;3.40;;;2.80;99.90;;;;;;5056158;28;20687;-61
2023/01/22 05:20:13;;;;;;;3.73;3.43;;;2.80;99.90;;;;;;5055815;28;20248;-61
2023/01/22 05:22:38;;;;;;;3.97;3.57;;;2.90;99.90;;;;;;5056069;28;20999;-61
2023/01/22 05:25:05;;;;;;;4.30;4.00;;;2.90;99.90;;;;;;5055565;28;20194;-61
2023/01/22 05:27:30;;;;;;;4.17;3.77;;;2.80;99.90;;;;;;5053080;28;20204;-61
2023/01/22 05:29:56;;;;;;;4.23;3.90;;;2.80;99.90;;;;;;5046799;28;20208;-61
2023/01/22 05:32:21;;;;;;;3.67;3.37;;;2.80;99.90;;;;;;5055861;28;20202;-62
2023/01/22 05:34:47;;;;;;;4.30;3.93;;;2.80;99.90;;;;;;5056041;28;20213;-61
2023/01/22 05:37:12;;;;;;;4.10;3.80;;;2.80;99.90;;;;;;5055669;28;20236;-60
2023/01/22 05:39:38;;;;;;;5.13;4.50;;;2.80;99.90;;;;;;5055956;28;20313;-61
2023/01/22 05:42:03;;;;;;;4.47;3.97;;;2.80;99.90;;;;;;5055509;28;20213;-61
2023/01/22 05:44:29;;;;;;;4.93;4.53;;;2.80;99.90;;;;;;5054261;28;20208;-61
2023/01/22 05:46:54;;;;;;;4.10;3.80;;;2.80;99.90;;;;;;5055803;28;20194;-61
2023/01/22 05:49:20;;;;;;;4.67;4.27;;;2.80;99.90;;;;;;5042825;28;21033;-62
2023/01/22 05:51:45;;;;;;;4.03;3.70;;;2.80;99.90;;;;;;5035695;28;20253;-62
2023/01/22 05:54:10;;;;;;;4.47;4.10;;;2.80;99.90;;;;;;5034946;28;20704;-62
2023/01/22 05:56:36;;;;;;;4.43;4.10;;;2.80;99.90;;;;;;5033284;28;20302;-61
2023/01/22 05:59:02;;;;;;;4.17;3.77;;;2.80;99.90;;;;;;5035075;28;20227;-62
2023/01/22 06:01:27;;;;;;;4.30;3.93;;;2.70;99.90;;;;;;5035297;28;20226;-61
2023/01/22 06:03:52;;;;;;;4.67;4.27;;;2.80;99.90;;;;;;5035381;28;20190;-61
2023/01/22 06:06:18;;;;;;;4.97;4.47;;;2.80;99.90;;;;;;5035016;28;20252;-63
2023/01/22 06:08:46;;;;;;;4.97;3.67;;;2.70;99.90;;;;;;5035095;28;20685;-60
2023/01/22 06:11:14;;;;;;;4.50;4.10;;;2.70;99.90;;;;;;4961888;28;20547;-62
2023/01/22 06:13:40;;;;;;;4.10;3.70;;;2.70;99.90;;;;;;5035544;28;20210;-62
2023/01/22 06:16:06;;;;;;;4.87;4.20;;;2.70;99.90;;;;;;5035255;28;20601;-60
2023/01/22 06:18:32;;;;;;;4.43;4.03;;;2.70;99.90;;;;;;5034790;28;20312;-60
2023/01/22 06:21:02;;;;;;;4.73;4.30;;;2.70;99.90;;;;;;5034700;28;20300;-60
2023/01/22 06:23:28;;;;;;;4.97;4.47;;;2.80;99.90;;;;;;5038802;28;20210;-60
2023/01/22 06:25:56;;;;;;;4.40;4.00;;;2.80;99.90;;;;;;5038860;28;20245;-61
2023/01/22 06:28:23;;;;;;;4.80;4.40;;;2.80;99.90;;;;;;5039491;28;20206;-61
2023/01/22 06:30:48;;;;;;;4.63;4.13;;;2.80;99.90;;;;;;5039636;28;20258;-61
2023/01/22 06:33:14;;;;;;;4.63;4.23;;;2.80;99.90;;;;;;5038067;28;20206;-62
2023/01/22 06:35:40;;;;;;;5.07;4.57;;;2.80;99.90;;;;;;5031073;28;20273;-62
2023/01/22 06:38:06;;;;;;;5.13;4.63;;;2.80;99.90;;;;;;5038893;28;20215;-62
2023/01/22 06:40:31;;;;;;;6.10;5.43;;;2.80;99.90;;;;;;5038884;28;20199;-62
2023/01/22 06:42:57;;;;;;;6.83;5.40;;;2.80;99.90;;;;;;5037967;28;20210;-62
2023/01/22 06:45:23;;;;;;;6.80;5.37;;;2.80;99.90;;;;;;5038572;28;20661;-61
2023/01/22 06:47:48;;;;;;;5.77;5.17;;;2.80;99.90;;;;;;5036817;28;20210;-62
2023/01/22 06:50:14;;;;;;;5.90;5.20;;;2.80;99.90;;;;;;5057896;28;20490;-62
2023/01/22 06:52:40;;;;;;;5.37;4.87;;;2.80;99.90;;;;;;5056131;28;20922;-62
2023/01/22 06:55:05;;;;;;;4.90;4.43;;;2.80;99.90;;;;;;5058409;28;20201;-62
2023/01/22 06:57:32;;;;;;;6.83;5.60;;;2.80;99.90;;;;;;5057709;28;20230;-62
2023/01/22 06:59:58;;;;;;;5.40;4.83;;;2.80;99.90;;;;;;5056314;28;20197;-62
2023/01/22 07:02:23;;;;;;;4.53;4.13;;;2.80;99.90;;;;;;5052401;28;20201;-62
2023/01/22 07:04:49;;;;;;;5.13;4.73;;;2.80;99.90;;;;;;5048987;28;20211;-62
2023/01/22 07:07:14;;;;;;;5.50;5.00;;;2.70;99.90;;;;;;5053431;28;20657;-62
2023/01/22 07:09:40;;;;;;;5.80;5.20;;;2.80;99.90;;;;;;5004406;28;20397;-63
2023/01/22 07:12:05;;;;;;;5.23;4.77;;;2.70;99.90;;;;;;5054639;28;20222;-62
2023/01/22 07:14:31;;;;;;;6.13;5.40;;;2.80;99.90;;;;;;5052977;28;20229;-62
2023/01/22 07:16:56;;;;;;;5.20;4.70;;;2.80;99.90;;;;;;5054190;28;20186;-62
2023/01/22 07:19:22;;;;;;;5.60;5.10;;;2.80;99.90;;;;;;5052960;28;20568;-62
2023/01/22 07:21:48;;;;;;;4.90;4.37;;;2.80;99.90;;;;;;5050427;28;20210;-63
2023/01/22 07:24:14;;;;;;;5.50;5.10;;;2.80;99.90;;;;;;5051192;28;20595;-62
2023/01/22 07:26:40;;;;;;;5.47;4.97;;;2.80;99.90;;;;;;5050189;28;20202;-62
2023/01/22 07:29:06;;;;;;;4.50;4.17;;;2.80;99.90;;;;;;5039059;28;20675;-62
2023/01/22 07:31:31;;;;;;;5.73;5.13;;;2.80;99.90;;;;;;5052356;28;20684;-62
2023/01/22 07:33:57;;;;;;;5.20;4.70;;;2.80;99.90;;;;;;5057683;28;20599;-61
2023/01/22 07:36:22;;;;;;;5.37;4.87;;;2.80;99.90;;;;;;5057653;28;20629;-61
2023/01/22 07:38:48;;;;;;;5.33;4.90;;;2.90;99.90;;;;;;5057993;28;20217;-62
2023/01/22 07:41:14;;;;;;;5.20;4.77;;;2.90;99.90;;;;;;5057317;28;20680;-62
2023/01/22 07:43:39;;;;;;;5.10;4.60;;;2.90;99.90;;;;;;5054303;28;20542;-60
2023/01/22 07:46:06;;;;;;;6.13;5.47;;;2.90;99.90;;;;;;5050971;28;20202;-61
2023/01/22 07:48:32;;;;;;;5.97;5.37;;;3.00;99.90;;;;;;5054996;28;20225;-61
2023/01/22 07:50:59;;;;;;;6.00;5.40;;;3.00;99.90;;;;;;5057144;28;20630;-62
2023/01/22 07:53:24;;;;;;;5.37;4.93;;;3.00;99.90;;;;;;5051831;28;20283;-61
2023/01/22 07:55:50;;;;;;;6.50;5.77;;;2.90;99.90;;;;;;5050327;28;20731;-61
2023/01/22 07:58:15;;;;;;;5.87;5.37;;;3.00;99.90;;;;;;5057103;28;20240;-62
2023/01/22 08:00:41;;;;;;;5.07;4.63;;;3.00;99.90;;;;;;5057409;28;20356;-61
2023/01/22 08:03:09;;;;;;;5.03;4.63;;;3.10;99.90;;;;;;5056980;28;20201;-61
2023/01/22 08:05:38;;;;;;;5.57;5.07;;;3.10;99.90;;;;;;5056863;28;20334;-62
2023/01/22 08:08:05;;;;;;;5.57;5.07;;;3.10;99.90;;;;;;5053554;28;20204;-61
2023/01/22 08:10:30;;;;;;;5.50;5.00;;;3.20;99.90;;;;;;5006586;28;20718;-63
2023/01/22 08:12:55;;;;;;;6.37;5.80;;;3.20;99.90;;;;;;5053562;28;20198;-62
2023/01/22 08:15:21;;;;;;;5.47;4.97;;;3.20;99.90;;;;;;5057055;28;20248;-62
2023/01/22 08:17:49;;;;;;;5.00;4.60;;;3.30;99.90;;;;;;5056619;28;20210;-62
2023/01/22 08:20:14;;;;;;;5.53;5.03;;;3.30;99.90;;;;;;5055594;28;20204;-62
2023/01/22 08:22:40;;;;;;;6.13;5.27;;;3.40;99.90;;;;;;5056225;28;20213;-62
2023/01/22 08:25:06;;;;;;;6.33;5.23;;;3.40;99.90;;;;;;5056778;28;20190;-61
2023/01/22 08:27:33;;;;;;;6.37;5.17;;;3.30;99.90;;;;;;5051765;28;20306;-61
2023/01/22 08:29:59;;;;;;;5.57;5.03;;;3.30;99.90;;;;;;5056523;28;20327;-62
2023/01/22 08:32:25;;;;;;;5.13;4.73;;;3.30;99.90;;;;;;5055703;28;20322;-61
2023/01/22 08:34:53;;;;;;;7.23;5.60;;;3.30;99.90;;;;;;5046856;28;20690;-62
2023/01/22 08:37:22;;;;;;;5.93;4.70;;;3.30;99.90;;;;;;5053678;28;20240;-62
2023/01/22 08:39:47;;;;;;;6.50;5.27;;;3.40;99.90;;;;;;5038982;28;20235;-63
2023/01/22 08:42:13;;;;;;;5.23;4.83;;;3.40;99.90;;;;;;5039234;28;20221;-64
2023/01/22 08:44:38;;;;;;;6.17;5.17;;;3.50;99.90;;;;;;5041269;28;20661;-62
2023/01/22 08:47:04;;;;;;;5.13;4.63;;;3.50;99.90;;;;;;5041371;28;20282;-61
2023/01/22 08:49:30;;;;;;;6.50;4.80;;;3.40;99.90;;;;;;5028436;28;20222;-61
2023/01/22 08:51:55;;;;;;;5.53;4.90;;;3.50;99.90;;;;;;5021172;28;20456;-60
2023/01/22 08:54:21;;;;;;;5.53;5.03;;;3.50;99.90;;;;;;5020048;28;20700;-61
2023/01/22 08:56:47;;;;;;;5.80;5.20;;;3.50;99.90;;;;;;5027296;28;20203;-62
2023/01/22 08:59:13;;;;;;;5.87;5.30;;;3.50;99.90;;;;;;5031679;28;20352;-63
2023/01/22 09:01:38;;;;;;;6.30;5.70;;;3.60;99.90;;;;;;5034406;28;20202;-61
2023/01/22 09:04:06;;;;;;;5.20;4.80;;;3.50;99.90;;;;;;5033872;28;20217;-61
2023/01/22 09:06:33;;;;;;;5.77;5.10;;;3.60;99.90;;;;;;5035402;28;20199;-62
2023/01/22 09:09:05;;;;;;;6.10;5.50;;;3.60;99.90;;;;;;5019451;28;20293;-56
2023/01/22 09:11:31;;;;;;;6.07;5.47;;;3.60;99.90;;;;;;5033050;28;20240;-60
2023/01/22 09:13:58;;;;;;;6.47;5.70;;;3.60;99.90;;;;;;5034172;28;20677;-61
2023/01/22 09:16:24;;;;;;;6.53;5.60;;;3.50;99.90;;;;;;5035694;28;20653;-65
2023/01/22 09:18:50;;;;;;;7.97;6.67;;;3.60;99.90;;;;;;5035566;28;20293;-68
2023/01/22 09:21:15;;;;;;;6.43;5.80;;;3.60;99.90;;;;;;5032117;28;20308;-69
2023/01/22 09:23:41;;;;;;;6.27;5.50;;;3.60;99.90;;;;;;5035042;28;20799;-69
2023/01/22 09:26:06;;;;;;;6.07;5.57;;;3.70;99.90;;;;;;5033321;28;20198;-68
2023/01/22 09:28:33;;;;;;;6.43;5.47;;;3.70;99.90;;;;;;5035541;28;20506;-68
2023/01/22 09:30:58;;;;;;;5.40;4.90;;;3.70;99.90;;;;;;5035203;28;20226;-69
2023/01/22 09:33:23;;;;;;;7.13;6.43;;;3.70;99.90;;;;;;5034978;28;20306;-69
2023/01/22 09:35:49;;;;;;;6.77;5.93;;;3.70;99.90;;;;;;5034705;28;20692;-69
2023/01/22 09:38:15;;;;;;;7.37;6.63;;;3.80;99.90;;;;;;5029129;28;20331;-68
2023/01/22 09:40:47;;;;;;;7.00;5.67;;;3.70;99.90;;;;;;5034788;28;20191;-67
2023/01/22 09:43:39;;;;;;;6.50;5.60;;;3.70;99.90;;;;;;5035401;28;20195;-69
2023/01/22 09:46:22;;;;;;;6.63;6.03;;;3.70;99.90;;;;;;5030643;28;20202;-69
2023/01/22 09:48:53;;;;;;;5.73;5.23;;;3.70;99.90;;;;;;5042538;28;20229;-68
2023/01/22 09:51:21;;;;;;;7.73;7.03;;;3.60;99.90;;;;;;5054753;28;20217;-70
2023/01/22 09:53:53;;;;;;;6.63;6.03;;;3.70;99.90;;;;;;5055021;28;20204;-69
2023/01/22 09:56:28;;;;;;;6.73;5.37;;;3.80;99.90;;;;;;5055954;28;20209;-70
2023/01/22 09:58:56;;;;;;;6.87;6.27;;;3.80;99.90;;;;;;5059543;28;20231;-69
2023/01/22 10:01:23;;;;;;;8.90;6.60;;;3.80;99.90;;;;;;5056947;28;20214;-68
2023/01/22 10:03:54;;;;;;;7.00;6.30;;;3.80;99.90;;;;;;5058627;28;20194;-69
2023/01/22 10:06:22;;;;;;;7.43;6.20;;;3.90;99.90;;;;;;5058912;28;20197;-66
2023/01/22 10:09:04;;;;;;;6.67;5.80;;;4.00;99.90;;;;;;5056819;28;20229;-56
2023/01/22 10:11:29;;;;;;;7.00;6.10;;;4.10;99.90;;;;;;5036324;28;20364;-55
2023/01/22 10:13:58;;;;;;;7.50;6.33;;;4.20;99.90;;;;;;5059013;28;20335;-57
2023/01/22 10:16:24;;;;;;;7.33;5.97;;;4.30;99.90;;;;;;5059008;28;20205;-55
2023/01/22 10:19:00;;;;;;;7.63;6.60;;;4.50;99.90;;;;;;5058273;28;20225;-54
2023/01/22 10:21:31;;;;;;;7.47;6.67;;;4.50;99.90;;;;;;5058316;28;20292;-56
2023/01/22 10:23:57;;;;;;;7.10;6.50;;;4.60;99.90;;;;;;5047821;28;20248;-56
2023/01/22 10:26:38;;;;;;;7.70;6.57;;;4.70;99.90;;;;;;5045158;28;20224;-55
2023/01/22 10:29:07;;;;;;;6.53;5.93;;;4.70;99.90;;;;;;5042875;28;20205;-55
2023/01/22 10:31:35;;;;;;;6.43;5.83;;;4.80;99.90;;;;;;5051634;28;20225;-55
2023/01/22 10:34:08;;;;;;;7.07;6.37;;;4.80;99.90;;;;;;5058389;28;20285;-55
2023/01/22 10:36:34;;;;;;;6.27;5.67;;;4.80;99.90;;;;;;5058932;28;20210;-57
2023/01/22 10:39:18;;;;;;;6.97;6.27;;;4.90;99.90;;;;;;5058451;28;20218;-56
2023/01/22 10:41:46;;;;;;;8.00;6.73;;;4.90;99.90;;;;;;5052202;28;20727;-58
2023/01/22 10:44:22;;;;;;;6.70;6.00;;;4.90;99.90;;;;;;5058689;28;20555;-65
2023/01/22 10:46:49;;;;;;;7.30;6.60;;;4.90;99.90;;;;;;5048304;28;20628;-56
2023/01/22 10:49:17;;;;;;;8.80;6.80;;;4.90;99.90;;;;;;5055958;28;21179;-61
2023/01/22 10:51:49;;;;;;;7.10;6.40;;;4.90;99.90;;;;;;5056253;28;20230;-57
2023/01/22 10:54:24;;;;;;;7.90;6.67;;;4.90;99.90;;;;;;5042914;28;20236;-57
2023/01/22 10:57:01;;;;;;;7.37;6.70;;;5.00;99.90;;;;;;5046785;28;20233;-57
2023/01/22 10:59:29;;;;;;;8.23;6.73;;;5.00;99.90;;;;;;5038378;28;20222;-56
2023/01/22 11:02:12;;;;;;;8.20;7.40;;;4.90;99.90;;;;;;5045426;28;20202;-56
2023/01/22 11:04:38;;;;;;;7.60;6.87;;;4.90;99.90;;;;;;5041400;28;20657;-58
2023/01/22 11:07:10;;;;;;;7.87;7.10;;;4.90;99.90;;;;;;5055207;28;20201;-57
2023/01/22 11:10:13;;;;;;;7.70;6.90;;;4.90;99.90;;;;;;5031264;28;20201;-57
2023/01/22 11:12:47;;;;;;;8.10;6.60;;;4.80;99.90;;;;;;5054762;28;20190;-55
2023/01/22 11:15:43;;;;;;;6.80;6.10;;;4.80;99.90;;;;;;5058193;28;20206;-73
2023/01/22 11:18:22;;;;;;;8.47;7.60;;;4.90;99.90;;;;;;5044551;28;20783;-69
2023/01/22 11:20:56;;;;;;;8.73;7.00;;;4.80;99.90;;;;;;5057963;28;20247;-67
2023/01/22 11:23:54;;;;;;;9.83;7.87;;;4.70;99.90;;;;;;5050330;28;20209;-68
2023/01/22 11:26:47;;;;;;;11.23;8.67;;;4.70;99.90;;;;;;5048767;28;20201;-68
2023/01/22 11:29:31;;;;;;;8.23;7.40;;;4.60;99.90;;;;;;5041187;28;20720;-69
2023/01/22 11:32:01;;;;;;;9.60;8.23;;;4.60;99.90;;;;;;5055020;28;20205;-69
2023/01/22 11:34:56;;;;;;;8.00;6.77;;;4.60;99.90;;;;;;5057490;28;20259;-69
2023/01/22 11:38:04;;;;;;;7.43;6.70;;;4.60;99.90;;;;;;5051084;28;20583;-69
2023/01/22 11:40:34;;;;;;;7.23;6.37;;;4.60;99.90;;;;;;5054979;28;20309;-68
2023/01/22 11:43:19;;;;;;;7.90;6.97;;;4.50;99.90;;;;;;5054572;28;20259;-69
2023/01/22 11:46:15;;;;;;;8.03;6.63;;;4.50;99.90;;;;;;5043077;28;20245;-70
2023/01/22 11:49:06;;;;;;;8.27;6.70;;;4.40;99.90;;;;;;5041075;28;20226;-68
2023/01/22 11:51:52;;;;;;;7.77;6.63;;;4.40;99.90;;;;;;5039140;28;20299;-70
2023/01/22 11:54:23;;;;;;;7.00;6.03;;;4.40;99.90;;;;;;5005332;28;20202;-69
2023/01/22 11:57:08;;;;;;;7.63;6.90;;;4.40;99.90;;;;;;5056573;28;20193;-69
2023/01/22 12:00:09;;;;;;;7.40;6.70;;;4.30;99.90;;;;;;5052715;28;20221;-69
2023/01/22 12:03:02;;;;;;;8.10;7.27;;;4.30;99.90;;;;;;5056549;28;20194;-66
2023/01/22 12:05:49;;;;;;;8.67;7.37;;;4.20;99.90;;;;;;5053605;28;20461;-66
2023/01/22 12:08:50;;;;;;;7.87;7.03;;;4.10;99.90;;;;;;5049689;28;21282;-65
2023/01/22 12:11:27;;;;;;;7.63;6.30;;;4.00;99.90;;;;;;5016537;28;20945;-64
2023/01/22 12:14:11;;;;;;;6.63;6.03;;;4.00;99.90;;;;;;5057340;28;20209;-67
2023/01/22 12:16:44;;;;;;;8.23;6.90;;;3.90;99.90;;;;;;5054959;28;20206;-65
2023/01/22 12:19:23;;;;;;;8.60;6.27;;;3.90;99.90;;;;;;5056505;28;20198;-64
2023/01/22 12:21:55;;;;;;;7.47;6.73;;;3.90;99.90;;;;;;5055144;28;20687;-64
2023/01/22 12:24:44;;;;;;;9.43;8.10;;;3.90;99.90;;;;;;5057083;28;20277;-66
2023/01/22 12:27:55;;;;;;;7.67;6.87;;;3.90;99.90;;;;;;5048534;28;20198;-65
2023/01/22 12:30:25;;;;;;;7.93;6.77;;;3.80;99.90;;;;;;5003457;28;20605;-69
2023/01/22 12:32:57;;;;;;;8.30;7.27;;;3.90;99.90;;;;;;5051171;28;20194;-68
2023/01/22 12:35:25;;;;;;;9.80;7.37;;;3.80;99.90;;;;;;5056890;28;20539;-68
2023/01/22 12:38:16;;;;;;;10.13;8.33;;;3.80;99.90;;;;;;5056839;28;20218;-69
2023/01/22 12:41:19;;;;;;;9.50;7.80;;;3.80;99.90;;;;;;5051414;28;20198;-64
2023/01/22 12:43:54;;;;;;;10.87;8.67;;;3.80;99.90;;;;;;5050303;28;20198;-64
2023/01/22 12:46:26;;;;;;;8.93;8.03;;;3.70;99.90;;;;;;5056733;28;20217;-64
2023/01/22 12:49:02;;;;;;;8.10;7.17;;;3.70;99.90;;;;;;5056392;28;20231;-64
2023/01/22 12:51:40;;;;;;;9.87;8.50;;;3.70;99.90;;;;;;5054081;28;20200;-63
2023/01/22 12:54:09;;;;;;;9.03;8.03;;;3.70;99.90;;;;;;5053639;28;20449;-64
2023/01/22 12:56:34;;;;;;;8.37;6.90;;;3.70;99.90;;;;;;5056428;28;20759;-62
2023/01/22 12:59:00;;;;;;;9.03;8.13;;;3.70;99.90;;;;;;5055410;28;20296;-62
2023/01/22 13:01:33;;;;;;;10.67;7.70;;;3.70;99.90;;;;;;5056078;28;20190;-63
2023/01/22 13:04:02;;;;;;;10.20;8.00;;;3.70;99.90;;;;;;5056610;28;20834;-64
2023/01/22 13:06:30;;;;;;;8.27;6.50;;;3.60;99.90;;;;;;5056310;28;20217;-64
2023/01/22 13:08:58;;;;;;;9.73;7.10;;;3.60;99.90;;;;;;5022830;28;20633;-60
2023/01/22 13:11:38;;;;;;;9.40;8.37;;;3.60;99.90;;;;;;5055705;28;20683;-64
2023/01/22 13:14:26;;;;;;;9.20;7.87;;;3.60;99.90;;;;;;5055542;28;20206;-63
2023/01/22 13:17:17;;;;;;;9.43;8.53;;;3.60;99.90;;;;;;5052454;28;20212;-64
2023/01/22 13:19:44;;;;;;;11.20;8.60;;;3.60;99.90;;;;;;5051370;28;20248;-65